createdAt,value
2023-01-04T00:04:49.270Z,7.80
2023-01-04T00:09:50.697Z,8.40
2023-01-04T00:14:52.166Z,5.82
2023-01-04T00:19:53.726Z,6.53
2023-01-04T00:24:55.206Z,5.30
2023-01-04T00:29:56.571Z,4.32
2023-01-04T00:34:58.055Z,6.80
2023-01-04T00:39:59.851Z,6.72
2023-01-04T00:45:01.229Z,8.77
2023-01-04T00:50:02.633Z,7.13
2023-01-04T00:55:04.196Z,9.82
2023-01-04T01:00:06.405Z,9.60
2023-01-04T01:05:08.105Z,10.20
2023-01-04T01:10:09.751Z,17.80
2023-01-04T01:15:12.289Z,9.40
2023-01-04T01:20:13.636Z,13.55
2023-01-04T01:25:15.103Z,17.65
2023-01-04T01:30:16.590Z,8.43
2023-01-04T01:35:17.950Z,8.32
2023-01-04T01:40:19.488Z,8.48
2023-01-04T01:45:36.737Z,10.65
2023-01-04T01:51:01.441Z,8.68
2023-01-04T01:56:05.926Z,7.30
2023-01-04T02:01:08.831Z,8.88
2023-01-04T02:06:13.322Z,7.53
2023-01-04T02:11:14.848Z,8.48
2023-01-04T02:16:46.845Z,8.02
2023-01-04T02:22:03.957Z,7.82
2023-01-04T02:27:24.309Z,6.55
2023-01-04T02:32:43.837Z,7.88
2023-01-04T02:38:03.653Z,8.07
2023-01-04T02:43:17.519Z,6.53
2023-01-04T02:48:19.387Z,5.38
2023-01-04T02:53:25.417Z,4.47
2023-01-04T02:58:45.229Z,3.30
2023-01-04T03:04:12.083Z,5.50
2023-01-04T03:09:22.124Z,2.92
2023-01-04T03:14:31.948Z,4.45
2023-01-04T03:19:36.840Z,3.67
2023-01-04T03:24:38.272Z,2.20
2023-01-04T03:29:54.853Z,4.35
2023-01-04T03:35:03.004Z,2.22
2023-01-04T03:40:24.858Z,4.07
2023-01-04T03:45:32.707Z,2.55
2023-01-04T03:50:42.685Z,1.90
2023-01-04T03:55:46.147Z,4.00
2023-01-04T04:00:48.376Z,1.52
2023-01-04T04:05:50.043Z,4.00
2023-01-04T04:10:55.828Z,1.35
2023-01-04T04:15:57.308Z,0.77
2023-01-04T04:20:58.714Z,1.65
2023-01-04T04:26:00.825Z,0.90
2023-01-04T04:31:02.888Z,1.73
2023-01-04T04:36:04.913Z,3.20
2023-01-04T04:41:11.027Z,1.92
2023-01-04T04:46:12.471Z,2.78
2023-01-04T04:51:13.946Z,1.23
2023-01-04T04:56:15.770Z,1.20
2023-01-04T05:01:17.738Z,0.57
2023-01-04T05:06:19.369Z,1.27
2023-01-04T05:11:20.808Z,0.82
2023-01-04T05:16:22.474Z,0.77
2023-01-04T05:21:24.371Z,2.00
2023-01-04T05:26:25.796Z,1.50
2023-01-04T05:31:27.419Z,0.75
2023-01-04T05:36:28.923Z,0.60
2023-01-04T05:41:30.425Z,1.92
2023-01-04T05:46:31.964Z,2.65
2023-01-04T05:51:33.456Z,2.05
2023-01-04T05:56:34.883Z,2.05
2023-01-04T06:01:36.367Z,0.55
2023-01-04T06:06:37.859Z,0.35
2023-01-04T06:11:39.371Z,1.25
2023-01-04T06:16:40.724Z,1.38
2023-01-04T06:21:42.160Z,0.85
2023-01-04T06:26:44.050Z,0.85
2023-01-04T06:31:45.685Z,1.80
2023-01-04T06:36:47.169Z,0.25
2023-01-04T06:41:48.679Z,0.30
2023-01-04T06:46:50.769Z,1.42
2023-01-04T06:51:52.302Z,0.52
2023-01-04T06:56:55.041Z,0.50
2023-01-04T07:01:56.594Z,0.93
2023-01-04T07:06:58.232Z,1.33
2023-01-04T07:11:59.626Z,1.20
2023-01-04T07:17:01.012Z,0.73
2023-01-04T07:22:02.689Z,0.75
2023-01-04T07:27:04.516Z,1.85
2023-01-04T07:32:11.747Z,1.33
2023-01-04T07:37:15.515Z,1.75
2023-01-04T07:42:17.608Z,1.02
2023-01-04T07:47:19.175Z,2.78
2023-01-04T07:52:20.887Z,1.52
2023-01-04T07:57:22.681Z,0.98
2023-01-04T08:02:24.167Z,0.95
2023-01-04T08:07:25.804Z,0.95
2023-01-04T08:12:27.567Z,2.05
2023-01-04T08:17:28.987Z,1.70
2023-01-04T08:22:30.515Z,0.40
2023-01-04T08:27:32.156Z,1.35
2023-01-04T08:32:33.658Z,1.70
2023-01-04T08:37:35.379Z,4.43
2023-01-04T08:42:36.953Z,1.75
2023-01-04T08:47:38.529Z,4.57
2023-01-04T08:52:41.513Z,1.55
2023-01-04T08:57:43.032Z,3.58
2023-01-04T09:02:44.669Z,1.40
2023-01-04T09:07:46.160Z,1.10
2023-01-04T09:12:47.767Z,1.40
2023-01-04T09:18:20.473Z,3.72
2023-01-04T09:23:11.399Z,0.75
2023-01-04T09:28:12.787Z,1.20
2023-01-04T09:33:14.199Z,0.75
2023-01-04T09:38:15.812Z,1.88
2023-01-04T09:43:22.341Z,1.30
2023-01-04T09:48:29.029Z,1.40
2023-01-04T09:54:00.544Z,1.13
2023-01-04T09:59:06.973Z,3.00
2023-01-04T10:04:24.793Z,4.97
2023-01-04T10:09:26.207Z,1.58
2023-01-04T10:14:45.985Z,1.10
2023-01-04T10:25:55.606Z,1.55
2023-01-04T10:31:40.757Z,1.38
2023-01-04T10:36:38.909Z,1.33
2023-01-04T10:41:53.206Z,1.77
2023-01-04T10:47:16.826Z,1.85
2023-01-04T10:52:20.184Z,3.42
2023-01-04T10:57:34.831Z,2.45
2023-01-04T11:02:55.052Z,3.67
2023-01-04T11:08:08.132Z,1.92
2023-01-04T11:13:09.734Z,2.67
2023-01-04T11:18:12.161Z,4.95
2023-01-04T11:23:19.542Z,1.60
2023-01-04T11:28:23.322Z,2.17
2023-01-04T11:33:26.022Z,1.85
2023-01-04T11:38:34.677Z,3.30
2023-01-04T11:43:38.640Z,2.40
2023-01-04T11:48:45.610Z,2.35
2023-01-04T11:53:58.042Z,3.78
2023-01-04T11:59:08.347Z,3.33
2023-01-04T12:04:21.754Z,4.20
2023-01-04T12:09:23.311Z,3.40
2023-01-04T12:14:27.708Z,6.13
2023-01-04T12:19:32.392Z,3.58
2023-01-04T12:24:34.754Z,2.95
2023-01-04T12:30:05.163Z,3.30
2023-01-04T12:35:45.186Z,1.35
2023-01-04T12:40:46.604Z,1.13
2023-01-04T12:45:48.098Z,1.27
2023-01-04T12:51:37.247Z,1.27
2023-01-04T12:57:10.293Z,1.40
2023-01-04T13:02:19.259Z,0.80
2023-01-04T13:07:27.209Z,0.15
2023-01-04T13:13:06.904Z,0.10
2023-01-04T13:18:24.843Z,0.93
2023-01-04T13:23:27.619Z,1.23
2023-01-04T13:28:28.972Z,1.08
2023-01-04T13:33:30.581Z,1.83
2023-01-04T13:38:34.230Z,1.50
2023-01-04T13:43:38.410Z,0.77
2023-01-04T13:48:43.120Z,1.55
2023-01-04T13:53:56.336Z,2.75
2023-01-04T13:58:58.736Z,0.65
2023-01-04T14:04:06.830Z,0.68
2023-01-04T14:09:11.672Z,0.57
2023-01-04T14:14:30.048Z,1.17
2023-01-04T14:19:56.555Z,0.77
2023-01-04T14:25:09.444Z,1.27
2023-01-04T14:30:17.557Z,0.52
2023-01-04T14:35:19.120Z,0.17
2023-01-04T14:40:28.827Z,0.10
2023-01-04T14:45:30.210Z,1.02
2023-01-04T14:50:31.869Z,0.50
2023-01-04T14:55:33.353Z,0.75
2023-01-04T15:00:34.856Z,1.73
2023-01-04T15:05:37.986Z,0.17
2023-01-04T15:10:40.645Z,0.88
2023-01-04T15:15:42.280Z,1.60
2023-01-04T15:20:44.183Z,1.15
2023-01-04T15:25:45.582Z,3.50
2023-01-04T15:30:47.139Z,1.38
2023-01-04T15:35:57.337Z,0.75
2023-01-04T15:41:04.310Z,0.20
2023-01-04T15:46:07.958Z,0.75
2023-01-04T15:51:09.471Z,0.45
2023-01-04T15:56:12.607Z,0.75
2023-01-04T16:01:16.015Z,1.15
2023-01-04T16:06:18.194Z,0.93
2023-01-04T16:11:23.628Z,2.60
2023-01-04T16:16:27.593Z,2.05
2023-01-04T16:21:29.478Z,2.10
2023-01-04T16:26:30.838Z,2.30
2023-01-04T16:31:34.093Z,1.60
2023-01-04T16:36:35.632Z,1.23
2023-01-04T16:41:37.425Z,2.70
2023-01-04T16:46:40.133Z,2.40
2023-01-04T16:51:44.202Z,1.95
2023-01-04T16:56:46.919Z,2.13
2023-01-04T17:01:55.689Z,2.88
2023-01-04T17:06:59.298Z,2.65
2023-01-04T17:17:22.821Z,4.57
2023-01-04T17:22:26.941Z,7.43
2023-01-04T17:27:32.330Z,9.27
2023-01-04T17:32:33.715Z,6.72
2023-01-04T17:37:35.156Z,10.13
2023-01-04T17:42:36.835Z,11.93
2023-01-04T17:47:38.242Z,9.18
2023-01-04T17:52:39.701Z,9.13
2023-01-04T18:02:47.497Z,10.02
2023-01-04T18:07:58.177Z,12.35
2023-01-04T18:12:59.605Z,14.98
2023-01-04T18:18:01.067Z,15.82
2023-01-04T18:23:02.552Z,15.15
2023-01-04T18:28:04.119Z,15.63
2023-01-04T18:33:05.608Z,14.30
2023-01-04T18:38:11.915Z,15.48
2023-01-04T18:43:13.554Z,18.75
2023-01-04T18:48:15.083Z,13.73
2023-01-04T18:53:16.751Z,15.13
2023-01-04T18:58:18.346Z,15.43
2023-01-04T19:03:20.109Z,17.23
2023-01-04T19:08:22.259Z,17.25
2023-01-04T19:13:23.852Z,20.27
2023-01-04T19:18:26.585Z,19.73
2023-01-04T19:23:28.552Z,13.70
2023-01-04T19:28:29.997Z,21.15
2023-01-04T19:33:31.408Z,16.65
2023-01-04T19:38:32.899Z,20.90
2023-01-04T19:43:35.499Z,16.45
2023-01-04T19:48:37.265Z,16.52
2023-01-04T19:53:39.665Z,17.98
2023-01-04T19:58:41.479Z,14.60
2023-01-04T20:03:43.072Z,15.63
2023-01-04T20:08:44.654Z,13.90
2023-01-04T20:13:46.141Z,14.85
2023-01-04T20:18:47.521Z,21.75
2023-01-04T20:23:49.008Z,15.95
2023-01-04T20:28:50.893Z,16.73
2023-01-04T20:33:52.678Z,14.32
2023-01-04T20:38:54.152Z,20.10
2023-01-04T20:43:55.744Z,14.48
2023-01-04T20:48:57.125Z,15.45
2023-01-04T20:53:58.841Z,18.95
2023-01-04T20:59:00.304Z,14.45
2023-01-04T21:04:01.831Z,17.00
2023-01-04T21:09:03.402Z,19.27
2023-01-04T21:14:05.176Z,13.25
2023-01-04T21:19:07.001Z,20.00
2023-01-04T21:24:09.674Z,15.75
2023-01-04T21:29:11.316Z,20.10
2023-01-04T21:34:20.887Z,14.77
2023-01-04T21:39:24.202Z,17.70
2023-01-04T21:44:25.592Z,14.85
2023-01-04T21:49:27.064Z,13.13
2023-01-04T21:54:28.485Z,12.00
2023-01-04T21:59:29.931Z,15.35
2023-01-04T22:04:32.550Z,12.13
2023-01-04T22:09:34.084Z,12.27
2023-01-04T22:14:35.631Z,10.80
2023-01-04T22:19:37.026Z,15.07
2023-01-04T22:24:38.569Z,16.13
2023-01-04T22:29:39.995Z,15.02
2023-01-04T22:34:41.413Z,12.30
2023-01-04T22:39:42.822Z,9.55
2023-01-04T22:44:44.160Z,14.52
2023-01-04T22:49:45.680Z,12.30
2023-01-04T22:54:50.223Z,14.82
2023-01-04T22:59:51.704Z,15.77
2023-01-04T23:04:53.698Z,12.35
2023-01-04T23:09:55.092Z,12.80
2023-01-04T23:14:56.495Z,13.70
2023-01-04T23:19:58.059Z,11.90
2023-01-04T23:24:59.405Z,15.48
2023-01-04T23:30:00.809Z,14.77
2023-01-04T23:35:03.061Z,14.98
2023-01-04T23:40:05.063Z,16.58
2023-01-04T23:45:07.151Z,16.90
2023-01-04T23:50:08.908Z,13.82
2023-01-04T23:55:10.543Z,17.92
